Time;durP1;ratioP1;P1;durP2;ratioP2;P2;SDS_P1;SDS_P2;PMS_P1;PMS_P2;Temp;Humidity;BMP_temperature;BMP_pressure;BME280_temperature;BME280_humidity;BME280_pressure;Samples;Min_cycle;Max_cycle;Signal;HPM_P1;HPM_P2
2022/03/01 00:00:12;;;;;;;;;;;-1.70;99.90;;;;;;5077808;28;20051;-62
2022/03/01 00:02:40;;;;;;;16.08;8.70;;;-1.70;99.90;;;;;;5075642;28;19924;-62
2022/03/01 00:05:07;;;;;;;20.75;10.73;;;-1.70;99.90;;;;;;5055856;28;20152;-62
2022/03/01 00:07:34;;;;;;;20.40;10.45;;;-1.70;99.90;;;;;;5056349;28;20106;-62
2022/03/01 00:10:01;;;;;;;;;;;-1.70;99.90;;;;;;5070425;28;20093;-62
2022/03/01 00:12:29;;;;;;;21.85;11.43;;;-1.80;99.90;;;;;;5077110;28;19931;-62
2022/03/01 00:14:56;;;;;;;19.15;12.27;;;-1.80;99.90;;;;;;5075444;28;20048;-63
2022/03/01 00:17:23;;;;;;;20.38;11.30;;;-1.90;99.90;;;;;;5076515;28;20035;-62
2022/03/01 00:19:50;;;;;;;21.50;10.95;;;-1.90;99.90;;;;;;5076389;28;20055;-62
2022/03/01 00:22:17;;;;;;;16.55;9.57;;;-1.90;99.90;;;;;;5076448;28;20047;-62
2022/03/01 00:24:44;;;;;;;15.77;10.40;;;-1.90;99.90;;;;;;5074978;28;20036;-63
2022/03/01 00:27:11;;;;;;;19.10;11.25;;;-1.90;99.90;;;;;;5076548;28;20044;-62
2022/03/01 00:29:37;;;;;;;21.50;12.35;;;-1.90;99.90;;;;;;5074640;28;20044;-63
2022/03/01 00:32:04;;;;;;;;;;;-1.90;99.90;;;;;;5076342;28;20125;-63
2022/03/01 00:34:31;;;;;;;17.63;10.73;;;-1.90;99.90;;;;;;5059481;28;19924;-63
2022/03/01 00:36:58;;;;;;;;;;;-1.80;99.90;;;;;;5056403;28;20044;-63
2022/03/01 00:39:25;;;;;;;21.13;10.55;;;-1.80;99.90;;;;;;5055946;28;20001;-63
2022/03/01 00:41:51;;;;;;;23.20;9.82;;;-1.90;99.90;;;;;;5055987;28;20055;-63
2022/03/01 00:44:18;;;;;;;26.38;12.18;;;-1.90;99.90;;;;;;5054746;28;20105;-63
2022/03/01 00:46:46;;;;;;;20.27;11.32;;;-1.90;99.90;;;;;;5055753;28;20485;-63
2022/03/01 00:49:13;;;;;;;;;;;-1.90;99.90;;;;;;5056680;28;20473;-63
2022/03/01 00:51:40;;;;;;;21.60;11.35;;;-2.00;99.90;;;;;;5062715;28;19924;-63
2022/03/01 00:54:07;;;;;;;19.25;10.65;;;-2.00;99.90;;;;;;5054374;28;20485;-63
2022/03/01 00:56:35;;;;;;;17.08;10.23;;;-2.00;99.90;;;;;;5055764;28;20071;-63
2022/03/01 00:59:02;;;;;;;20.85;10.55;;;-2.00;99.90;;;;;;5058321;28;20063;-63
2022/03/01 01:01:28;;;;;;;;;;;-2.00;99.90;;;;;;5055769;28;20044;-62
2022/03/01 01:03:56;;;;;;;17.80;9.98;;;-2.10;99.90;;;;;;5064818;28;20014;-63
2022/03/01 01:06:22;;;;;;;18.60;10.73;;;-2.10;99.90;;;;;;5075422;28;20048;-63
2022/03/01 01:08:49;;;;;;;23.70;10.27;;;-2.10;99.90;;;;;;5071740;28;20348;-62
2022/03/01 01:11:16;;;;;;;;;;;-2.10;99.90;;;;;;5056258;28;20459;-63
2022/03/01 01:13:43;;;;;;;16.63;8.55;;;-2.10;99.90;;;;;;5054611;28;19986;-63
2022/03/01 01:16:10;;;;;;;20.88;9.70;;;-2.10;99.90;;;;;;5055562;28;20165;-63
2022/03/01 01:18:38;;;;;;;17.50;9.50;;;-2.10;99.90;;;;;;5055430;28;20399;-62
2022/03/01 01:21:05;;;;;;;14.68;8.38;;;-2.10;99.90;;;;;;5055604;28;20041;-62
2022/03/01 01:23:32;;;;;;;18.92;9.75;;;-2.10;99.90;;;;;;5054063;28;20048;-62
2022/03/01 01:25:59;;;;;;;13.60;8.50;;;-2.10;99.90;;;;;;5055664;28;20055;-62
2022/03/01 01:28:26;;;;;;;16.25;8.70;;;-2.10;99.90;;;;;;5055719;28;20505;-63
2022/03/01 01:30:54;;;;;;;15.35;9.15;;;-2.10;99.90;;;;;;5054737;28;20040;-62
2022/03/01 01:33:20;;;;;;;20.05;9.70;;;-2.10;99.90;;;;;;5060076;28;20934;-62
2022/03/01 01:35:47;;;;;;;16.65;9.63;;;-2.10;99.90;;;;;;5075218;28;20066;-63
2022/03/01 01:38:16;;;;;;;15.57;9.98;;;-2.10;99.90;;;;;;5075920;28;20044;-63
2022/03/01 01:40:43;;;;;;;18.75;10.43;;;-2.10;99.90;;;;;;5075328;28;20052;-62
2022/03/01 01:43:09;;;;;;;16.73;9.80;;;-2.20;99.90;;;;;;5074786;28;20043;-62
2022/03/01 01:45:36;;;;;;;18.70;9.98;;;-2.20;99.90;;;;;;5074934;28;20501;-62
2022/03/01 01:48:04;;;;;;;21.70;13.15;;;-2.20;99.90;;;;;;5075264;28;20135;-62
2022/03/01 01:50:33;;;;;;;21.92;8.93;;;-2.30;99.90;;;;;;5075644;28;20044;-62
2022/03/01 01:53:00;;;;;;;17.80;8.68;;;-2.30;99.90;;;;;;5044547;28;20049;-62
2022/03/01 01:55:27;;;;;;;17.95;9.90;;;-2.30;99.90;;;;;;5038821;28;20037;-62
2022/03/01 01:57:57;;;;;;;12.88;8.27;;;-2.30;99.90;;;;;;5053055;28;20059;-62
2022/03/01 02:00:25;;;;;;;16.75;8.48;;;-2.30;99.90;;;;;;5077960;28;20044;-63
2022/03/01 02:02:52;;;;;;;16.13;8.43;;;-2.40;99.90;;;;;;5077002;28;20674;-62
2022/03/01 02:05:19;;;;;;;16.20;9.65;;;-2.40;99.90;;;;;;5058105;28;20044;-63
2022/03/01 02:07:50;;;;;;;15.48;9.38;;;-2.40;99.90;;;;;;5058612;28;20123;-62
2022/03/01 02:10:17;;;;;;;19.25;9.48;;;-2.50;99.90;;;;;;5074231;28;20048;-62
2022/03/01 02:12:45;;;;;;;16.23;9.65;;;-2.50;99.90;;;;;;5079489;28;20047;-63
2022/03/01 02:15:13;;;;;;;16.42;10.18;;;-2.50;99.90;;;;;;5077835;28;20048;-63
2022/03/01 02:17:40;;;;;;;15.57;9.15;;;-2.50;99.90;;;;;;5078714;28;20758;-62
2022/03/01 02:20:18;;;;;;;18.10;10.20;;;-2.50;99.90;;;;;;5079394;28;20099;-63
2022/03/01 02:22:46;;;;;;;20.80;10.68;;;-2.50;99.90;;;;;;5078173;28;20048;-62
2022/03/01 02:25:13;;;;;;;15.82;9.25;;;-2.60;99.90;;;;;;5078055;28;20043;-62
2022/03/01 02:27:40;;;;;;;25.55;11.85;;;-2.60;99.90;;;;;;5076870;28;20078;-62
2022/03/01 02:30:09;;;;;;;24.48;13.30;;;-2.60;99.90;;;;;;5078301;28;20066;-62
2022/03/01 02:32:38;;;;;;;18.83;13.07;;;-2.70;99.90;;;;;;5079051;28;20039;-64
2022/03/01 02:35:07;;;;;;;17.52;10.88;;;-2.70;99.90;;;;;;5057385;28;20044;-62
2022/03/01 02:37:34;;;;;;;23.83;11.18;;;-2.80;99.90;;;;;;5058288;28;20036;-64
2022/03/01 02:40:02;;;;;;;19.15;11.40;;;-2.80;99.90;;;;;;5058156;28;20569;-62
2022/03/01 02:42:30;;;;;;;19.88;12.23;;;-2.80;99.90;;;;;;5058575;28;20045;-62
2022/03/01 02:44:58;;;;;;;25.27;12.57;;;-2.80;99.90;;;;;;5056815;28;20529;-62
2022/03/01 02:47:25;;;;;;;20.30;11.50;;;-2.90;99.90;;;;;;5058702;28;20641;-62
2022/03/01 02:49:52;;;;;;;25.88;13.27;;;-2.90;99.90;;;;;;5058349;28;20795;-62
2022/03/01 02:52:19;;;;;;;26.35;11.73;;;-2.90;99.90;;;;;;5065482;28;20885;-62
2022/03/01 02:54:45;;;;;;;22.92;12.95;;;-2.90;99.90;;;;;;5057766;28;20060;-62
2022/03/01 02:57:12;;;;;;;22.35;11.57;;;-3.00;99.90;;;;;;5059894;28;20052;-62
2022/03/01 02:59:39;;;;;;;26.83;11.77;;;-3.00;99.90;;;;;;5057305;28;20048;-62
2022/03/01 03:02:06;;;;;;;17.52;10.60;;;-3.00;99.90;;;;;;5056476;28;20118;-62
2022/03/01 03:04:34;;;;;;;18.52;10.13;;;-3.00;99.90;;;;;;5071187;28;20048;-61
2022/03/01 03:07:01;;;;;;;25.25;11.32;;;-3.00;99.90;;;;;;5078084;28;20055;-62
2022/03/01 03:09:27;;;;;;;18.15;10.48;;;-3.00;99.90;;;;;;5068623;28;20067;-62
2022/03/01 03:11:54;;;;;;;19.45;9.48;;;-3.00;99.90;;;;;;5057994;28;20040;-62
2022/03/01 03:14:21;;;;;;;;;;;-3.00;99.90;;;;;;5057682;28;20052;-62
2022/03/01 03:16:49;;;;;;;24.80;11.15;;;-3.00;99.90;;;;;;5057976;28;20768;-62
2022/03/01 03:19:15;;;;;;;18.17;10.13;;;-3.00;99.90;;;;;;5057829;28;20645;-62
2022/03/01 03:21:46;;;;;;;26.77;11.75;;;-3.00;99.90;;;;;;5056802;28;20086;-61
2022/03/01 03:24:13;;;;;;;19.30;9.68;;;-3.00;99.90;;;;;;5057104;28;20417;-62
2022/03/01 03:26:42;;;;;;;19.17;9.52;;;-3.10;99.90;;;;;;5056964;28;20068;-62
2022/03/01 03:29:09;;;;;;;26.25;12.00;;;-3.00;99.90;;;;;;5056959;28;20078;-62
2022/03/01 03:31:37;;;;;;;20.50;11.65;;;-3.00;99.90;;;;;;5057533;28;20052;-62
2022/03/01 03:34:07;;;;;;;20.80;10.90;;;-3.10;99.90;;;;;;5067660;28;20105;-61
2022/03/01 03:36:38;;;;;;;22.42;11.20;;;-3.10;99.90;;;;;;5077273;28;20708;-62
2022/03/01 03:39:08;;;;;;;21.10;10.63;;;-3.10;99.90;;;;;;5077138;28;20699;-62
2022/03/01 03:41:35;;;;;;;19.45;10.25;;;-3.10;99.90;;;;;;5077355;28;20573;-62
2022/03/01 03:44:03;;;;;;;22.15;10.95;;;-3.10;99.90;;;;;;5054034;28;20103;-62
2022/03/01 03:46:30;;;;;;;20.65;10.52;;;-3.10;99.90;;;;;;5045345;28;20039;-62
2022/03/01 03:48:57;;;;;;;19.45;9.63;;;-3.10;99.90;;;;;;5037010;28;20076;-62
2022/03/01 03:51:25;;;;;;;24.13;11.93;;;-3.20;99.90;;;;;;5047226;28;20036;-63
2022/03/01 03:53:54;;;;;;;18.20;9.77;;;-3.20;99.90;;;;;;5058463;28;20044;-62
2022/03/01 03:56:22;;;;;;;17.30;10.23;;;-3.20;99.90;;;;;;5056710;28;20838;-62
2022/03/01 03:58:50;;;;;;;17.50;9.27;;;-3.20;99.90;;;;;;5059164;28;20543;-62
2022/03/01 04:01:17;;;;;;;15.27;9.05;;;-3.30;99.90;;;;;;5052771;28;20037;-62
2022/03/01 04:03:44;;;;;;;16.80;8.77;;;-3.30;99.90;;;;;;5063405;28;20044;-62
2022/03/01 04:06:11;;;;;;;16.10;10.00;;;-3.40;99.90;;;;;;5076955;28;20036;-62
2022/03/01 04:08:38;;;;;;;21.92;10.23;;;-3.40;99.90;;;;;;5074552;28;20055;-62
2022/03/01 04:11:05;;;;;;;18.55;9.20;;;-3.50;99.90;;;;;;5056677;28;20452;-62
2022/03/01 04:13:33;;;;;;;16.13;9.07;;;-3.50;99.90;;;;;;5055764;28;20571;-62
2022/03/01 04:16:01;;;;;;;17.08;9.43;;;-3.50;99.90;;;;;;5056770;28;20039;-61
2022/03/01 04:18:28;;;;;;;18.98;10.05;;;-3.50;99.90;;;;;;5056514;28;20036;-62
2022/03/01 04:20:55;;;;;;;22.92;8.90;;;-3.50;99.90;;;;;;5055793;28;20053;-62
2022/03/01 04:23:21;;;;;;;16.60;9.20;;;-3.50;99.90;;;;;;5055927;28;20063;-62
2022/03/01 04:25:48;;;;;;;17.85;9.73;;;-3.50;99.90;;;;;;5056108;28;20759;-62
2022/03/01 04:28:15;;;;;;;15.48;8.75;;;-3.50;99.90;;;;;;5056205;28;20555;-62
2022/03/01 04:30:41;;;;;;;;;;;-3.50;99.90;;;;;;5056689;28;20048;-62
2022/03/01 04:33:08;;;;;;;16.02;9.40;;;-3.50;99.90;;;;;;5059164;28;19924;-62
2022/03/01 04:35:35;;;;;;;14.27;8.32;;;-3.50;99.90;;;;;;5076211;28;20647;-61
2022/03/01 04:38:03;;;;;;;15.00;8.52;;;-3.50;99.90;;;;;;5076322;28;20583;-62
2022/03/01 04:40:29;;;;;;;12.88;9.13;;;-3.50;99.90;;;;;;5074721;28;20093;-62
2022/03/01 04:42:56;;;;;;;12.30;7.57;;;-3.50;99.90;;;;;;5075846;28;20052;-63
2022/03/01 04:45:23;;;;;;;13.52;8.30;;;-3.50;99.90;;;;;;5074656;28;20040;-62
2022/03/01 04:47:50;;;;;;;14.18;7.95;;;-3.60;99.90;;;;;;5076158;28;20036;-62
2022/03/01 04:50:17;;;;;;;15.32;8.88;;;-3.60;99.90;;;;;;5075636;28;20077;-62
2022/03/01 04:52:44;;;;;;;16.33;7.93;;;-3.60;99.90;;;;;;5051262;28;20055;-62
2022/03/01 04:55:11;;;;;;;15.40;8.52;;;-3.60;99.90;;;;;;5034893;28;20072;-63
2022/03/01 04:57:38;;;;;;;13.80;8.07;;;-3.70;99.90;;;;;;5044472;28;20177;-63
2022/03/01 05:00:10;;;;;;;15.20;8.20;;;-3.70;99.90;;;;;;5075935;28;20773;-62
2022/03/01 05:02:42;;;;;;;15.35;8.43;;;-3.70;99.90;;;;;;5075940;28;20570;-63
2022/03/01 05:05:10;;;;;;;15.20;8.93;;;-3.80;99.90;;;;;;5054365;28;20283;-62
2022/03/01 05:07:39;;;;;;;20.55;8.45;;;-3.80;99.90;;;;;;5053601;28;20055;-62
2022/03/01 05:10:08;;;;;;;14.00;7.70;;;-3.90;99.90;;;;;;5070021;28;20040;-62
2022/03/01 05:12:43;;;;;;;14.77;9.68;;;-3.90;99.90;;;;;;5075394;28;20036;-62
2022/03/01 05:15:10;;;;;;;18.77;10.02;;;-3.90;99.90;;;;;;5074203;28;20630;-63
2022/03/01 05:17:38;;;;;;;19.13;10.85;;;-3.90;99.90;;;;;;5075720;28;20048;-63
2022/03/01 05:20:05;;;;;;;23.98;11.65;;;-3.90;99.90;;;;;;5075515;28;20044;-62
2022/03/01 05:22:36;;;;;;;20.55;11.18;;;-3.90;99.90;;;;;;5075865;28;20052;-63
2022/03/01 05:25:09;;;;;;;18.65;11.18;;;-3.90;99.90;;;;;;5073131;28;20063;-62
2022/03/01 05:27:37;;;;;;;20.13;10.77;;;-3.90;99.90;;;;;;5075317;28;20048;-62
2022/03/01 05:30:07;;;;;;;21.65;11.15;;;-3.90;99.90;;;;;;5078266;28;20616;-63
2022/03/01 05:32:34;;;;;;;24.48;11.43;;;-4.00;99.90;;;;;;5079533;28;20771;-63
2022/03/01 05:35:03;;;;;;;17.35;9.93;;;-4.10;99.90;;;;;;5058455;28;20048;-62
2022/03/01 05:37:30;;;;;;;19.83;10.55;;;-4.20;99.90;;;;;;5059614;28;20044;-65
2022/03/01 05:39:57;;;;;;;25.05;11.85;;;-4.20;99.90;;;;;;5059980;28;20037;-61
2022/03/01 05:42:24;;;;;;;24.40;13.32;;;-4.20;99.90;;;;;;5058913;28;20048;-62
2022/03/01 05:44:51;;;;;;;22.55;12.98;;;-4.20;99.90;;;;;;5059162;28;20041;-62
2022/03/01 05:47:18;;;;;;;26.85;14.45;;;-4.20;99.90;;;;;;5058934;28;20037;-63
2022/03/01 05:49:45;;;;;;;29.65;14.05;;;-4.20;99.90;;;;;;5058926;28;20094;-62
2022/03/01 05:52:12;;;;;;;29.77;14.93;;;-4.20;99.90;;;;;;5067348;28;20032;-63
2022/03/01 05:54:39;;;;;;;23.67;13.52;;;-4.20;99.90;;;;;;5058323;28;20581;-63
2022/03/01 05:57:06;;;;;;;26.70;14.25;;;-4.10;99.90;;;;;;5060235;28;20045;-63
2022/03/01 05:59:38;;;;;;;27.65;15.23;;;-4.10;99.90;;;;;;5058635;28;20049;-63
2022/03/01 06:02:05;;;;;;;25.17;13.70;;;-4.10;99.90;;;;;;5059110;28;20055;-63
2022/03/01 06:04:32;;;;;;;28.08;15.57;;;-4.10;99.90;;;;;;5071820;28;20051;-63
2022/03/01 06:06:59;;;;;;;28.05;13.88;;;-4.10;99.90;;;;;;5079228;28;20032;-62
2022/03/01 06:09:26;;;;;;;24.83;13.70;;;-4.10;99.90;;;;;;5065531;28;20656;-61
2022/03/01 06:11:53;;;;;;;27.67;14.07;;;-4.10;99.90;;;;;;5037993;28;20908;-61
2022/03/01 06:14:20;;;;;;;25.15;14.15;;;-4.10;99.90;;;;;;5036786;28;20591;-61
2022/03/01 06:16:46;;;;;;;24.63;12.18;;;-4.10;99.90;;;;;;5038713;28;20060;-61
2022/03/01 06:19:13;;;;;;;21.60;10.70;;;-4.10;99.90;;;;;;5038701;28;20102;-62
2022/03/01 06:21:40;;;;;;;20.50;10.68;;;-4.10;99.90;;;;;;5038550;28;20080;-62
2022/03/01 06:24:07;;;;;;;24.40;11.00;;;-4.10;99.90;;;;;;5037794;28;20048;-62
2022/03/01 06:26:34;;;;;;;21.30;11.15;;;-4.00;99.90;;;;;;5038120;28;20045;-62
2022/03/01 06:29:01;;;;;;;21.58;10.65;;;-4.00;99.90;;;;;;5036693;28;20044;-62
2022/03/01 06:31:28;;;;;;;18.17;11.38;;;-3.80;99.90;;;;;;5037090;28;20041;-63
2022/03/01 06:33:56;;;;;;;19.65;10.98;;;-3.70;99.90;;;;;;5057767;28;20097;-63
2022/03/01 06:36:24;;;;;;;24.30;10.13;;;-3.50;99.90;;;;;;5078864;28;20047;-58
2022/03/01 06:38:52;;;;;;;17.90;8.95;;;-3.30;99.90;;;;;;5077149;28;20048;-58
2022/03/01 06:41:20;;;;;;;16.42;9.48;;;-3.10;99.90;;;;;;5075804;28;20054;-58
2022/03/01 06:43:47;;;;;;;16.58;8.77;;;-2.80;99.90;;;;;;5077810;28;20493;-58
2022/03/01 06:46:14;;;;;;;21.38;8.90;;;-2.40;99.90;;;;;;5078081;28;20129;-57
2022/03/01 06:48:43;;;;;;;20.35;9.50;;;-2.10;99.90;;;;;;5076150;28;20101;-58
2022/03/01 06:51:10;;;;;;;18.70;9.40;;;-1.70;99.90;;;;;;5042443;28;20036;-58
2022/03/01 06:53:36;;;;;;;14.25;8.05;;;-1.40;99.90;;;;;;5035948;28;20045;-58
2022/03/01 06:56:04;;;;;;;;;;;-1.00;99.90;;;;;;5044994;28;20109;-58
2022/03/01 06:58:31;;;;;;;14.68;7.47;;;-0.70;99.90;;;;;;5059062;28;19924;-58
2022/03/01 07:01:00;;;;;;;16.17;8.77;;;-0.30;99.90;;;;;;5054854;28;20044;-58
2022/03/01 07:03:28;;;;;;;17.73;8.10;;;0.00;99.90;;;;;;5049865;28;20124;-58
2022/03/01 07:05:55;;;;;;;14.65;8.75;;;0.30;99.90;;;;;;5036977;28;20063;-58
2022/03/01 07:08:23;;;;;;;10.50;6.30;;;0.60;99.90;;;;;;5039455;28;20037;-58
2022/03/01 07:10:50;;;;;;;13.32;7.47;;;1.00;99.90;;;;;;5036528;28;20158;-58
2022/03/01 07:13:18;;;;;;;14.13;7.20;;;1.20;99.90;;;;;;5035884;28;20115;-58
2022/03/01 07:15:44;;;;;;;12.35;7.28;;;1.50;99.90;;;;;;5036439;28;20102;-58
2022/03/01 07:18:11;;;;;;;12.32;6.55;;;1.90;99.90;;;;;;5036380;28;20040;-58
2022/03/01 07:20:38;;;;;;;;;;;2.20;99.90;;;;;;5036621;28;20102;-58
2022/03/01 07:23:05;;;;;;;13.82;6.78;;;2.40;98.60;;;;;;5035554;28;20303;-58
2022/03/01 07:25:32;;;;;;;17.13;7.13;;;2.60;97.50;;;;;;5036567;28;20041;-58
2022/03/01 07:27:59;;;;;;;13.77;6.68;;;2.90;95.90;;;;;;5035845;28;20590;-58
2022/03/01 07:30:27;;;;;;;15.50;7.25;;;3.20;94.00;;;;;;5036042;28;20037;-58
2022/03/01 07:32:56;;;;;;;14.10;6.95;;;3.40;91.00;;;;;;5041592;28;20033;-58
2022/03/01 07:35:25;;;;;;;9.52;6.25;;;3.60;89.90;;;;;;5075560;28;20044;-58
2022/03/01 07:37:52;;;;;;;13.05;6.53;;;3.80;87.90;;;;;;5077959;28;20549;-58
2022/03/01 07:40:22;;;;;;;14.52;6.28;;;4.00;84.60;;;;;;5076476;28;20079;-57
2022/03/01 07:42:50;;;;;;;9.82;6.63;;;4.10;84.10;;;;;;5077372;28;20645;-57
2022/03/01 07:45:18;;;;;;;11.93;7.63;;;4.20;83.30;;;;;;5074813;28;20047;-57
2022/03/01 07:47:45;;;;;;;15.10;7.18;;;4.30;84.30;;;;;;5059726;28;20107;-56
2022/03/01 07:50:12;;;;;;;13.35;7.63;;;4.40;82.40;;;;;;5035849;28;20048;-57
2022/03/01 07:52:39;;;;;;;15.27;8.35;;;4.50;80.50;;;;;;5037682;28;20084;-57
2022/03/01 07:55:07;;;;;;;17.27;8.20;;;4.50;79.50;;;;;;5034982;28;20102;-61
2022/03/01 07:57:35;;;;;;;16.80;9.63;;;4.60;79.60;;;;;;5043719;28;20040;-57
2022/03/01 08:00:03;;;;;;;24.27;8.38;;;4.70;79.00;;;;;;5057149;28;20070;-56
2022/03/01 08:02:38;;;;;;;16.58;8.55;;;4.80;78.30;;;;;;5055764;28;20503;-58
2022/03/01 08:05:06;;;;;;;16.25;9.77;;;4.90;78.40;;;;;;5074349;28;20425;-56
2022/03/01 08:07:46;;;;;;;20.92;9.73;;;4.90;79.20;;;;;;5060241;28;20069;-61
2022/03/01 08:10:13;;;;;;;24.67;10.18;;;5.10;79.70;;;;;;5054086;28;20152;-64
2022/03/01 08:12:40;;;;;;;23.77;11.10;;;5.30;80.50;;;;;;5034503;28;20471;-59
2022/03/01 08:15:08;;;;;;;;;;;5.50;80.40;;;;;;5032470;28;20486;-56
2022/03/01 08:17:35;;;;;;;20.80;12.23;;;5.70;77.30;;;;;;5049521;28;19935;-55
2022/03/01 08:20:02;;;;;;;22.20;12.63;;;5.80;78.00;;;;;;5054556;28;20056;-56
2022/03/01 08:22:29;;;;;;;23.60;12.85;;;6.00;79.30;;;;;;5053513;28;20597;-55
2022/03/01 08:24:56;;;;;;;32.10;12.15;;;6.10;78.40;;;;;;5051719;28;20064;-59
2022/03/01 08:27:23;;;;;;;35.85;13.00;;;6.30;78.00;;;;;;5053688;28;20118;-57
2022/03/01 08:29:52;;;;;;;21.10;13.27;;;6.40;76.30;;;;;;5043564;28;20033;-57
2022/03/01 08:32:19;;;;;;;26.13;12.57;;;6.40;74.70;;;;;;5034114;28;20759;-56
2022/03/01 08:34:46;;;;;;;;;;;6.40;75.50;;;;;;5034983;28;20907;-56
2022/03/01 08:37:13;;;;;;;32.92;13.75;;;6.60;75.20;;;;;;5033074;28;20690;-65
2022/03/01 08:39:41;;;;;;;20.83;13.35;;;6.60;75.50;;;;;;5032613;28;20051;-60
2022/03/01 08:42:08;;;;;;;21.20;13.38;;;6.80;75.80;;;;;;5033920;28;20052;-59
2022/03/01 08:44:35;;;;;;;22.60;13.23;;;7.20;75.30;;;;;;5032161;28;20057;-58
2022/03/01 08:47:02;;;;;;;25.45;12.63;;;7.50;73.80;;;;;;5033270;28;20928;-58
2022/03/01 08:49:29;;;;;;;28.75;13.68;;;7.70;72.00;;;;;;5033576;28;20041;-57
2022/03/01 08:51:57;;;;;;;24.48;14.15;;;7.80;72.10;;;;;;5051293;28;20032;-56
2022/03/01 08:54:24;;;;;;;23.90;13.68;;;7.90;71.80;;;;;;5053148;28;20048;-57
2022/03/01 08:56:51;;;;;;;21.60;14.63;;;8.00;71.90;;;;;;5053069;28;20459;-56
2022/03/01 08:59:18;;;;;;;27.83;13.57;;;8.20;70.60;;;;;;5055792;28;20060;-56
2022/03/01 09:01:45;;;;;;;21.98;13.55;;;8.20;68.70;;;;;;5052899;28;20833;-57
2022/03/01 09:04:13;;;;;;;28.75;14.38;;;8.30;68.80;;;;;;5063897;28;21106;-57
2022/03/01 09:06:41;;;;;;;21.38;13.68;;;8.40;67.60;;;;;;5073523;28;20781;-56
2022/03/01 09:09:07;;;;;;;;;;;8.50;68.60;;;;;;5067072;28;20876;-57
2022/03/01 09:11:34;;;;;;;25.40;14.18;;;8.60;69.00;;;;;;5053502;28;19925;-57
2022/03/01 09:14:01;;;;;;;21.85;13.75;;;8.80;67.10;;;;;;5051904;28;20041;-56
2022/03/01 09:16:28;;;;;;;27.80;14.38;;;8.80;66.30;;;;;;5051308;28;20049;-56
2022/03/01 09:18:55;;;;;;;;;;;8.70;66.00;;;;;;5053969;28;20061;-57
2022/03/01 09:21:22;;;;;;;26.08;14.55;;;8.60;65.50;;;;;;5051407;28;19920;-59
2022/03/01 09:23:48;;;;;;;;;;;8.50;67.50;;;;;;5052998;28;20753;-60
2022/03/01 09:26:15;;;;;;;20.75;13.63;;;8.60;68.80;;;;;;5051017;28;19924;-57
2022/03/01 09:28:43;;;;;;;26.10;14.30;;;8.80;68.30;;;;;;5053255;28;20516;-57
2022/03/01 09:31:10;;;;;;;26.42;14.63;;;9.10;66.50;;;;;;5048154;28;20041;-50
2022/03/01 09:33:42;;;;;;;24.73;13.75;;;9.30;66.70;;;;;;5031564;28;20102;-51
2022/03/01 09:36:13;;;;;;;27.23;15.48;;;9.50;64.10;;;;;;5050028;28;20058;-51
2022/03/01 09:38:41;;;;;;;22.02;14.55;;;9.50;63.00;;;;;;5050765;28;20052;-56
2022/03/01 09:41:10;;;;;;;26.92;15.57;;;9.50;64.00;;;;;;5051802;28;20041;-57
2022/03/01 09:43:38;;;;;;;28.50;15.20;;;9.70;63.70;;;;;;5051165;28;20121;-56
2022/03/01 09:46:07;;;;;;;21.73;14.18;;;9.80;61.90;;;;;;5067515;28;20052;-56
2022/03/01 09:48:37;;;;;;;23.77;14.93;;;10.00;62.00;;;;;;5051441;28;20041;-57
2022/03/01 09:51:06;;;;;;;22.98;14.93;;;10.10;60.10;;;;;;5054863;28;20063;-55
2022/03/01 09:53:36;;;;;;;27.52;15.25;;;10.10;59.90;;;;;;5046934;28;20860;-55
2022/03/01 09:56:04;;;;;;;22.95;15.40;;;10.00;60.20;;;;;;5052188;28;20052;-57
2022/03/01 09:58:31;;;;;;;23.92;14.02;;;10.00;62.40;;;;;;5039045;28;20045;-55
2022/03/01 10:00:58;;;;;;;23.55;15.27;;;10.10;62.80;;;;;;5047424;28;20056;-55
2022/03/01 10:03:27;;;;;;;26.83;14.77;;;10.30;60.80;;;;;;5036870;28;20048;-56
2022/03/01 10:06:12;;;;;;;24.77;14.82;;;10.40;60.90;;;;;;5050206;28;20068;-56
2022/03/01 10:08:39;;;;;;;21.45;14.80;;;10.60;61.10;;;;;;5049563;28;20040;-55
2022/03/01 10:11:07;;;;;;;25.67;15.18;;;10.50;58.10;;;;;;5032544;28;20056;-56
2022/03/01 10:13:36;;;;;;;21.75;14.57;;;10.30;59.90;;;;;;5031836;28;20143;-56
2022/03/01 10:16:10;;;;;;;20.92;14.32;;;10.30;60.20;;;;;;5034904;28;20037;-56
2022/03/01 10:18:52;;;;;;;24.13;15.57;;;10.30;59.20;;;;;;5036934;28;20052;-56
2022/03/01 10:21:21;;;;;;;23.77;14.90;;;10.40;59.90;;;;;;5035958;28;20482;-56
2022/03/01 10:23:53;;;;;;;21.73;15.27;;;10.50;59.80;;;;;;5034813;28;20060;-56
2022/03/01 10:26:23;;;;;;;30.23;15.82;;;10.60;59.00;;;;;;5034391;28;20161;-56
2022/03/01 10:28:52;;;;;;;32.65;16.67;;;10.70;58.70;;;;;;5036472;28;20072;-56
2022/03/01 10:31:26;;;;;;;23.70;15.85;;;10.60;58.00;;;;;;5034061;28;20068;-56
2022/03/01 10:33:58;;;;;;;27.20;15.25;;;10.50;58.80;;;;;;5055099;28;20176;-56
2022/03/01 10:36:28;;;;;;;26.25;16.48;;;10.50;58.50;;;;;;5077021;28;20143;-56
2022/03/01 10:39:04;;;;;;;21.30;14.63;;;10.60;58.40;;;;;;5076147;28;20062;-56
2022/03/01 10:41:33;;;;;;;22.45;14.82;;;10.60;58.00;;;;;;5076474;28;20040;-57
2022/03/01 10:44:03;;;;;;;23.45;16.38;;;10.60;58.30;;;;;;5074666;28;20074;-55
2022/03/01 10:46:37;;;;;;;26.65;15.75;;;10.60;57.80;;;;;;5063122;28;20041;-56
2022/03/01 10:49:10;;;;;;;31.10;17.27;;;10.40;57.70;;;;;;5055086;28;20055;-55
2022/03/01 10:51:58;;;;;;;22.83;15.57;;;10.30;58.80;;;;;;5062458;28;20564;-54
2022/03/01 10:54:36;;;;;;;24.20;16.50;;;10.40;59.50;;;;;;5041193;28;20052;-55
2022/03/01 10:57:05;;;;;;;23.38;15.98;;;10.60;59.90;;;;;;5054125;28;20047;-56
2022/03/01 10:59:34;;;;;;;31.98;16.20;;;10.90;58.70;;;;;;5054548;28;20056;-55
2022/03/01 11:02:02;;;;;;;22.70;15.13;;;11.00;56.90;;;;;;5055720;28;20051;-59
2022/03/01 11:04:29;;;;;;;25.92;15.38;;;11.10;57.40;;;;;;5041153;28;20041;-57
2022/03/01 11:07:00;;;;;;;29.23;15.35;;;11.30;58.00;;;;;;5035622;28;20040;-56
2022/03/01 11:09:29;;;;;;;22.05;15.77;;;11.60;57.40;;;;;;5044208;28;20041;-58
2022/03/01 11:11:57;;;;;;;20.88;14.07;;;11.80;57.60;;;;;;5056181;28;20098;-57
2022/03/01 11:14:44;;;;;;;29.20;15.98;;;12.10;56.40;;;;;;5054727;28;20044;-57
2022/03/01 11:17:29;;;;;;;21.05;15.20;;;12.40;55.40;;;;;;5055710;28;20084;-58
2022/03/01 11:19:57;;;;;;;22.70;14.52;;;12.70;55.00;;;;;;5071242;28;20139;-57
2022/03/01 11:22:29;;;;;;;21.45;14.13;;;13.00;53.50;;;;;;5053712;28;20086;-56
2022/03/01 11:24:56;;;;;;;23.48;16.13;;;13.20;53.10;;;;;;5070175;28;20547;-57
2022/03/01 11:27:26;;;;;;;23.42;15.45;;;13.30;52.90;;;;;;5068816;28;20041;-56
2022/03/01 11:30:08;;;;;;;24.08;15.85;;;13.30;52.90;;;;;;5055310;28;20667;-57
2022/03/01 11:32:42;;;;;;;27.73;17.10;;;13.30;52.00;;;;;;5054691;28;20060;-56
2022/03/01 11:35:27;;;;;;;23.88;15.45;;;13.30;50.80;;;;;;5034914;28;20048;-57
2022/03/01 11:38:10;;;;;;;19.25;14.68;;;13.20;51.30;;;;;;5033707;28;20059;-57
2022/03/01 11:40:50;;;;;;;20.73;14.00;;;13.10;52.50;;;;;;5035219;28;20041;-57
2022/03/01 11:43:23;;;;;;;24.42;16.33;;;13.10;50.20;;;;;;5033699;28;20059;-57
2022/03/01 11:45:56;;;;;;;24.13;15.70;;;12.90;51.50;;;;;;5034152;28;20052;-56
2022/03/01 11:48:26;;;;;;;20.83;13.85;;;12.90;51.80;;;;;;5035395;28;20431;-55
2022/03/01 11:50:59;;;;;;;20.48;14.57;;;12.90;52.00;;;;;;5036663;28;20041;-57
2022/03/01 11:53:29;;;;;;;21.20;13.85;;;12.90;52.00;;;;;;5060506;28;20567;-57
2022/03/01 11:55:57;;;;;;;20.00;13.75;;;12.90;53.40;;;;;;5054480;28;20040;-57
2022/03/01 11:58:26;;;;;;;19.38;14.43;;;13.10;53.10;;;;;;5044431;28;20140;-57
2022/03/01 12:00:55;;;;;;;21.48;15.25;;;13.10;52.40;;;;;;5034970;28;20103;-57
2022/03/01 12:03:25;;;;;;;22.10;14.80;;;13.20;52.40;;;;;;5038667;28;20048;-57
2022/03/01 12:05:54;;;;;;;21.45;14.85;;;13.40;51.50;;;;;;5054273;28;20127;-56
2022/03/01 12:08:21;;;;;;;19.85;14.25;;;13.60;51.80;;;;;;5054101;28;20071;-58
2022/03/01 12:10:54;;;;;;;21.30;15.30;;;13.80;51.60;;;;;;5034592;28;20048;-57
2022/03/01 12:13:39;;;;;;;19.10;14.70;;;13.80;50.30;;;;;;5031779;28;20045;-57
2022/03/01 12:16:08;;;;;;;21.08;14.48;;;13.70;48.80;;;;;;5034203;28;20044;-57
2022/03/01 12:18:38;;;;;;;19.13;12.88;;;13.40;50.70;;;;;;5034831;28;20431;-57
2022/03/01 12:21:07;;;;;;;22.27;15.25;;;13.20;51.50;;;;;;5034133;28;20094;-56
2022/03/01 12:23:39;;;;;;;24.13;14.57;;;13.30;50.60;;;;;;5033802;28;20051;-56
2022/03/01 12:26:09;;;;;;;21.83;13.18;;;13.20;50.70;;;;;;5033847;28;20114;-57
2022/03/01 12:28:47;;;;;;;21.73;15.43;;;13.10;51.10;;;;;;5034090;28;20053;-58
2022/03/01 12:31:23;;;;;;;20.63;14.80;;;13.20;52.00;;;;;;5034178;28;20063;-57
2022/03/01 12:34:02;;;;;;;20.50;13.82;;;13.30;51.40;;;;;;5051672;28;20044;-58
2022/03/01 12:36:33;;;;;;;19.90;14.65;;;13.40;50.70;;;;;;5073756;28;20050;-57
2022/03/01 12:39:11;;;;;;;22.90;15.57;;;13.30;49.70;;;;;;5073775;28;20044;-57
2022/03/01 12:41:47;;;;;;;21.83;14.13;;;13.30;50.80;;;;;;5074710;28;20659;-57
2022/03/01 12:44:16;;;;;;;22.10;14.02;;;13.20;50.40;;;;;;5072309;28;20040;-57